Wednesday, September 17, 2014, 5:31 AM EDT

KRIC, Richmond International Airport

Location: Sandston, VA, United States Lat: 37.517
Local Time: 5:31 AM EDT ( 9:31 GMT) Lon: -77.317
Time Zone: US/Eastern Elev: 167 ft

Show me the last for .
Show Decoded

2014-09-17 04:54 METAR KRIC 170854Z 01005KT 10SM FEW060 SCT095 16/13 A3001 RMK AO2 SLP165
                 T01610133 57002 =
2014-09-17 03:54 METAR KRIC 170754Z 02005KT 10SM FEW070 SCT095 17/13 A3001 RMK AO2 SLP166
                 T01720133 =
2014-09-17 02:54 METAR KRIC 170654Z 02004KT 10SM SCT070 SCT080 18/13 A3001 RMK AO2 SLP167
                 T01780133 =
2014-09-17 01:54 METAR KRIC 170554Z 01006KT 10SM SCT065 BKN095 18/13 A3002 RMK AO2 SLP168
                 T01830133 10222 20183 50000 =
2014-09-17 00:54 METAR KRIC 170454Z 02004KT 10SM BKN065 BKN095 19/13 A3002 RMK AO2 SLP170
                 T01940133 402830183 =
2014-09-16 23:54 METAR KRIC 170354Z 04005KT 10SM BKN060 OVC090 21/13 A3002 RMK AO2 SLP168 BINOVC
                 T02060133 =
2014-09-16 22:54 METAR KRIC 170254Z 05004KT 10SM BKN055 21/14 A3002 RMK AO2 SLP167 T02110144
                 53012 =
2014-09-16 21:54 METAR KRIC 170154Z 02003KT 10SM BKN070 BKN100 21/14 A3000 RMK AO2 SLP163
                 T02110144 =
2014-09-16 20:54 METAR KRIC 170054Z 05006KT 10SM SCT048 BKN060 22/14 A2999 RMK AO2 SLP159
                 T02170144 =
2014-09-16 19:54 METAR KRIC 162354Z 03005KT 10SM SCT055 BKN100 22/14 A2998 RMK AO2 SLP155
                 T02220144 10283 20222 53005 =
2014-09-16 18:54 METAR KRIC 162254Z 03007KT 10SM SCT050 SCT095 24/15 A2997 RMK AO2 SLP154
                 T02390150 =
2014-09-16 17:54 METAR KRIC 162154Z 03007KT 10SM BKN050 BKN080 25/16 A2997 RMK AO2 SLP151
                 T02500161 =
2014-09-16 16:54 METAR KRIC 162054Z 03008KT 10SM BKN055 BKN070 26/16 A2997 =
2014-09-16 15:54 METAR KRIC 161954Z 00000KT 10SM BKN055 27/14 A2996 =
2014-09-16 14:54 METAR KRIC 161854Z 00000KT 10SM SCT050 SCT070 BKN090 27/14 A2996 RMK AO2 SLP150
                 T02720144 =
2014-09-16 13:54 METAR KRIC 161754Z 05007KT 10SM FEW047 BKN060 27/14 A2998 =
2014-09-16 12:54 METAR KRIC 161654Z 35004KT 10SM BKN047 27/14 A2999 RMK AO2 SLP160 T02720144 =
2014-09-16 11:54 METAR KRIC 161554Z 00000KT 10SM SCT040 SCT080 27/14 A3001 RMK AO2 SLP166
                 T02720144 =
2014-09-16 10:54 METAR KRIC 161454Z 00000KT 10SM FEW020 SCT070 SCT300 26/15 A3003 RMK AO2 SLP173
                 T02610150 58001 =
2014-09-16 09:54 METAR KRIC 161354Z 35004KT 10SM FEW010 SCT070 SCT300 25/17 A3003 RMK AO2 SLP174
                 T02500172 =
2014-09-16 08:54 METAR KRIC 161254Z 30004KT 9SM FEW005 SCT070 SCT300 22/18 A3004 RMK AO2 SLP175
                 T02220183 =
2014-09-16 07:54 METAR KRIC 161154Z 24004KT 6SM BR FEW005 SCT070 SCT300 20/18 A3003 RMK AO2
                 SLP174 T02000178 10200 20189 53006 =
2014-09-16 06:54 METAR KRIC 161054Z 24004KT 4SM BR SCT006 SCT070 19/18 A3002 RMK AO2 SLP170
                 T01940178 =
2014-09-16 06:25 METAR KRIC 161025Z 25008KT 8SM SCT006 SCT070 19/18 A3002 RMK AO2 =
2014-09-16 05:54 METAR KRIC 160954Z 25006KT 9SM OVC007 19/18 A3002 RMK AO2 SLP170 T01940178 =

Support USWX by starting your Amazon purchase here.